createdAt,value
2018-04-17T00:01:04.399Z,99.90
2018-04-17T00:04:05.728Z,99.90
2018-04-17T00:07:07.218Z,99.90
2018-04-17T00:10:09.616Z,99.90
2018-04-17T00:13:11.786Z,99.90
2018-04-17T00:16:13.824Z,99.90
2018-04-17T00:19:15.085Z,99.90
2018-04-17T00:22:16.359Z,99.90
2018-04-17T00:25:17.655Z,99.90
2018-04-17T00:28:18.918Z,99.90
2018-04-17T00:31:20.204Z,99.90
2018-04-17T00:34:22.243Z,99.90
2018-04-17T00:37:23.648Z,99.90
2018-04-17T00:40:25.640Z,99.90
2018-04-17T00:43:26.909Z,99.90
2018-04-17T00:46:28.177Z,99.90
2018-04-17T00:49:29.489Z,99.90
2018-04-17T00:52:31.380Z,99.90
2018-04-17T00:55:32.980Z,99.90
2018-04-17T00:58:34.231Z,99.90
2018-04-17T01:01:36.462Z,99.90
2018-04-17T01:04:38.825Z,99.90
2018-04-17T01:07:40.262Z,99.90
2018-04-17T01:10:42.426Z,99.90
2018-04-17T01:13:43.733Z,99.90
2018-04-17T01:16:45.059Z,99.90
2018-04-17T01:19:46.329Z,99.90
2018-04-17T01:22:47.589Z,99.90
2018-04-17T01:25:48.869Z,99.90
2018-04-17T01:28:50.119Z,99.90
2018-04-17T01:31:51.392Z,99.90
2018-04-17T01:34:53.455Z,99.90
2018-04-17T01:37:54.744Z,99.90
2018-04-17T01:40:56.750Z,99.90
2018-04-17T01:43:58.034Z,99.90
2018-04-17T01:46:59.272Z,99.90
2018-04-17T01:50:00.945Z,99.90
2018-04-17T01:53:02.378Z,99.90
2018-04-17T01:56:03.991Z,99.90
2018-04-17T01:59:05.520Z,99.90
2018-04-17T02:02:06.874Z,99.90
2018-04-17T02:05:08.279Z,99.90
2018-04-17T02:08:10.348Z,99.90
2018-04-17T02:11:12.360Z,99.90
2018-04-17T02:14:13.612Z,99.90
2018-04-17T02:17:14.886Z,99.90
2018-04-17T02:20:16.188Z,99.90
2018-04-17T02:23:18.196Z,99.90
2018-04-17T02:26:20.184Z,99.90
2018-04-17T02:29:22.189Z,99.90
2018-04-17T02:32:23.444Z,99.90
2018-04-17T02:35:24.707Z,99.90
2018-04-17T02:38:25.994Z,99.90
2018-04-17T02:41:27.303Z,99.90
2018-04-17T02:44:28.673Z,99.90
2018-04-17T02:47:30.133Z,99.90
2018-04-17T02:50:31.785Z,99.90
2018-04-17T02:53:33.094Z,99.90
2018-04-17T02:56:35.231Z,99.90
2018-04-17T02:59:36.695Z,99.90
2018-04-17T03:02:38.066Z,99.90
2018-04-17T03:05:39.515Z,99.90
2018-04-17T03:08:41.578Z,99.90
2018-04-17T03:11:42.867Z,99.90
2018-04-17T03:14:44.869Z,99.90
2018-04-17T03:18:01.909Z,99.90
2018-04-17T03:21:05.179Z,99.90
2018-04-17T03:24:06.789Z,99.90
2018-04-17T03:27:10.301Z,99.90
2018-04-17T03:30:12.445Z,99.90
2018-04-17T03:33:14.058Z,99.90
2018-04-17T03:36:17.679Z,99.90
2018-04-17T03:39:19.832Z,99.90
2018-04-17T03:42:21.118Z,99.90
2018-04-17T03:45:22.711Z,99.90
2018-04-17T03:48:23.981Z,99.90
2018-04-17T03:51:25.997Z,99.90
2018-04-17T03:54:27.321Z,99.90
2018-04-17T03:57:28.619Z,99.90
2018-04-17T04:00:29.934Z,99.90
2018-04-17T04:03:37.555Z,99.90
2018-04-17T04:06:39.167Z,99.90
2018-04-17T04:09:40.487Z,99.90
2018-04-17T04:12:42.047Z,99.90
2018-04-17T04:15:43.328Z,99.90
2018-04-17T04:19:03.303Z,99.90
2018-04-17T04:22:23.383Z,99.90
2018-04-17T04:25:57.715Z,99.90
2018-04-17T04:28:58.950Z,99.90
2018-04-17T04:32:01.441Z,99.90
2018-04-17T04:35:03.738Z,99.90
2018-04-17T04:38:05.796Z,99.90
2018-04-17T04:41:07.061Z,99.90
2018-04-17T04:44:08.344Z,99.90
2018-04-17T04:47:10.597Z,99.90
2018-04-17T04:50:11.984Z,99.90
2018-04-17T04:53:13.227Z,99.90
2018-04-17T04:56:14.475Z,99.90
2018-04-17T04:59:15.759Z,99.90
2018-04-17T05:02:17.024Z,99.90
2018-04-17T05:05:18.426Z,99.90
2018-04-17T05:08:20.438Z,99.90
2018-04-17T05:11:24.073Z,99.90
2018-04-17T05:14:25.489Z,99.90
2018-04-17T05:17:26.833Z,99.90
2018-04-17T05:20:31.039Z,99.90
2018-04-17T05:23:34.463Z,99.90
2018-04-17T05:26:36.257Z,99.90
2018-04-17T05:29:37.590Z,99.90
2018-04-17T05:32:39.224Z,99.90
2018-04-17T05:35:40.546Z,99.90
2018-04-17T05:38:42.281Z,99.90
2018-04-17T05:41:43.560Z,99.90
2018-04-17T05:44:45.277Z,99.90
2018-04-17T05:47:47.382Z,99.90
2018-04-17T05:50:48.656Z,99.90
2018-04-17T05:53:49.937Z,99.90
2018-04-17T05:56:51.193Z,99.90
2018-04-17T05:59:52.490Z,99.90
2018-04-17T06:02:53.755Z,99.90
2018-04-17T06:05:55.025Z,99.90
2018-04-17T06:08:56.283Z,99.90
2018-04-17T06:11:58.045Z,99.90
2018-04-17T06:15:00.233Z,99.90
2018-04-17T06:18:01.983Z,99.90
2018-04-17T06:21:03.350Z,99.90
2018-04-17T06:24:05.132Z,99.90
2018-04-17T06:27:06.572Z,99.90
2018-04-17T06:30:14.129Z,99.90
2018-04-17T06:33:15.465Z,99.90
2018-04-17T06:36:16.738Z,99.90
2018-04-17T06:39:18.028Z,99.90
2018-04-17T06:42:19.305Z,99.90
2018-04-17T06:45:20.580Z,99.90
2018-04-17T06:48:22.606Z,99.90
2018-04-17T06:51:23.867Z,99.90
2018-04-17T06:54:25.209Z,99.90
2018-04-17T06:57:26.496Z,99.90
2018-04-17T07:00:27.776Z,99.90
2018-04-17T07:03:29.049Z,99.90
2018-04-17T07:06:30.561Z,99.90
2018-04-17T07:09:32.871Z,99.90
2018-04-17T07:12:34.197Z,99.90
2018-04-17T07:15:36.390Z,99.90
2018-04-17T07:18:38.639Z,99.90
2018-04-17T07:21:39.985Z,99.90
2018-04-17T07:24:41.296Z,99.90
2018-04-17T07:27:42.608Z,99.90
2018-04-17T07:30:43.882Z,99.90
2018-04-17T07:33:45.135Z,99.90
2018-04-17T07:36:46.719Z,99.90
2018-04-17T07:39:48.041Z,99.90
2018-04-17T07:42:50.080Z,99.90
2018-04-17T07:45:51.429Z,99.90
2018-04-17T07:48:52.797Z,99.90
2018-04-17T07:51:54.127Z,99.90
2018-04-17T07:54:55.667Z,99.90
2018-04-17T07:57:56.968Z,99.90
2018-04-17T08:00:58.222Z,99.90
2018-04-17T08:03:59.538Z,99.90
2018-04-17T08:07:01.249Z,99.90
2018-04-17T08:10:03.755Z,99.90
2018-04-17T08:13:05.146Z,99.90
2018-04-17T08:16:06.607Z,99.90
2018-04-17T08:19:07.940Z,99.90
2018-04-17T08:22:10.041Z,99.90
2018-04-17T08:25:11.431Z,99.90
2018-04-17T08:28:12.785Z,99.90
2018-04-17T08:31:14.166Z,99.50
2018-04-17T08:34:15.459Z,99.90
2018-04-17T08:37:16.819Z,99.90
2018-04-17T08:40:18.148Z,99.90
2018-04-17T08:43:19.492Z,99.90
2018-04-17T08:46:20.853Z,98.50
2018-04-17T08:49:23.071Z,97.60
2018-04-17T08:52:24.380Z,97.60
2018-04-17T08:55:25.783Z,98.20
2018-04-17T08:58:27.128Z,98.20
2018-04-17T09:01:29.200Z,99.50
2018-04-17T09:04:31.275Z,99.00
2018-04-17T09:07:32.637Z,98.90
2018-04-17T09:10:34.010Z,98.40
2018-04-17T09:13:35.350Z,98.80
2018-04-17T09:16:36.707Z,97.60
2018-04-17T09:19:38.009Z,96.80
2018-04-17T09:22:40.111Z,96.30
2018-04-17T09:25:41.491Z,96.20
2018-04-17T09:28:42.838Z,96.40
2018-04-17T09:31:44.985Z,94.80
2018-04-17T09:34:46.332Z,94.70
2018-04-17T09:37:47.684Z,94.90
2018-04-17T09:40:49.047Z,95.30
2018-04-17T09:43:50.451Z,96.00
2018-04-17T09:46:51.831Z,96.80
2018-04-17T09:49:53.584Z,95.50
2018-04-17T09:52:54.934Z,94.60
2018-04-17T09:55:56.353Z,95.60
2018-04-17T09:58:58.497Z,96.70
2018-04-17T10:01:59.871Z,96.40
2018-04-17T10:05:01.463Z,97.40
2018-04-17T10:08:03.616Z,96.60
2018-04-17T10:11:05.063Z,96.40
2018-04-17T10:14:06.462Z,93.90
2018-04-17T10:17:07.863Z,96.30
2018-04-17T10:20:09.967Z,94.50
2018-04-17T10:23:11.319Z,94.40
2018-04-17T10:26:12.713Z,93.60
2018-04-17T10:29:14.150Z,93.70
2018-04-17T10:32:15.631Z,95.10
2018-04-17T10:35:17.013Z,94.00
2018-04-17T10:38:18.396Z,94.40
2018-04-17T10:41:19.693Z,93.20
2018-04-17T10:44:21.797Z,93.10
2018-04-17T10:47:23.162Z,93.20
2018-04-17T10:50:24.509Z,91.60
2018-04-17T10:53:26.611Z,91.60
2018-04-17T10:56:27.972Z,91.60
2018-04-17T10:59:30.087Z,92.80
2018-04-17T11:02:31.479Z,92.70
2018-04-17T11:05:32.854Z,91.40
2018-04-17T11:08:34.234Z,90.30
2018-04-17T11:11:36.326Z,87.40
2018-04-17T11:14:38.452Z,90.20
2018-04-17T11:17:39.792Z,90.10
2018-04-17T11:20:41.154Z,89.60
2018-04-17T11:23:42.538Z,89.80
2018-04-17T11:26:43.925Z,91.00
2018-04-17T11:29:45.301Z,91.30
2018-04-17T11:32:46.658Z,91.10
2018-04-17T11:35:47.972Z,90.10
2018-04-17T11:38:50.080Z,84.70
2018-04-17T11:41:51.444Z,84.60
2018-04-17T11:44:52.811Z,88.90
2018-04-17T11:47:54.137Z,90.30
2018-04-17T11:50:55.494Z,82.80
2018-04-17T11:53:56.926Z,82.30
2018-04-17T11:56:58.305Z,86.50
2018-04-17T12:00:00.412Z,82.90
2018-04-17T12:03:01.770Z,82.70
2018-04-17T12:06:03.151Z,85.80
2018-04-17T12:09:05.438Z,89.50
2018-04-17T12:12:06.797Z,85.70
2018-04-17T12:15:08.160Z,78.80
2018-04-17T12:18:09.522Z,85.10
2018-04-17T12:21:11.005Z,80.10
2018-04-17T12:24:13.137Z,82.90
2018-04-17T12:27:14.499Z,82.80
2018-04-17T12:30:15.826Z,84.10
2018-04-17T12:33:17.947Z,77.50
2018-04-17T12:36:19.313Z,77.50
2018-04-17T12:39:20.680Z,80.20
2018-04-17T12:42:22.029Z,75.40
2018-04-17T12:45:23.415Z,75.10
2018-04-17T12:48:24.766Z,73.70
2018-04-17T12:51:26.129Z,77.50
2018-04-17T12:54:27.414Z,77.40
2018-04-17T12:57:28.807Z,74.20
2018-04-17T13:00:30.140Z,76.70
2018-04-17T13:03:31.509Z,77.50
2018-04-17T13:06:32.862Z,76.40
2018-04-17T13:09:34.210Z,76.40
2018-04-17T13:12:35.536Z,74.50
2018-04-17T13:15:36.916Z,74.50
2018-04-17T13:18:38.286Z,76.50
2018-04-17T13:21:40.404Z,74.70
2018-04-17T13:24:41.765Z,74.20
2018-04-17T13:27:43.112Z,80.60
2018-04-17T13:30:45.207Z,69.70
2018-04-17T13:33:46.571Z,69.60
2018-04-17T13:36:48.690Z,70.30
2018-04-17T13:39:50.055Z,70.40
2018-04-17T13:42:51.435Z,67.80
2018-04-17T13:45:52.823Z,71.10
2018-04-17T13:48:54.194Z,70.70
2018-04-17T13:51:56.376Z,69.50
2018-04-17T13:54:58.535Z,68.80
2018-04-17T13:57:59.917Z,68.80
2018-04-17T14:01:01.245Z,69.70
2018-04-17T14:04:02.643Z,71.50
2018-04-17T14:07:04.006Z,72.20
2018-04-17T14:10:05.341Z,72.20
2018-04-17T14:13:06.687Z,71.50
2018-04-17T14:16:08.044Z,73.60
2018-04-17T14:19:09.397Z,75.60
2018-04-17T14:22:11.469Z,76.70
2018-04-17T14:25:13.457Z,73.30
2018-04-17T14:28:15.457Z,72.00
2018-04-17T14:31:16.740Z,72.00
2018-04-17T14:34:18.023Z,74.60
2018-04-17T14:37:19.277Z,71.60
2018-04-17T14:40:20.533Z,70.50
2018-04-17T14:43:21.789Z,76.40
2018-04-17T14:46:23.076Z,73.20
2018-04-17T14:49:24.307Z,72.90
2018-04-17T14:52:25.568Z,75.30
2018-04-17T14:55:26.829Z,74.00
2018-04-17T14:58:28.059Z,76.90
2018-04-17T15:01:29.304Z,78.30
2018-04-17T15:04:30.676Z,76.90
2018-04-17T15:07:32.136Z,69.70
2018-04-17T15:10:33.393Z,73.20
2018-04-17T15:13:34.662Z,72.10
2018-04-17T15:16:36.192Z,69.20
2018-04-17T15:19:37.463Z,69.20
2018-04-17T15:22:38.795Z,70.20
2018-04-17T15:25:40.846Z,70.00
2018-04-17T15:28:42.372Z,70.00
2018-04-17T15:31:43.640Z,70.80
2018-04-17T15:34:44.873Z,66.90
2018-04-17T15:37:46.896Z,73.30
2018-04-17T15:40:48.184Z,73.20
2018-04-17T15:43:49.424Z,71.20
2018-04-17T15:46:50.711Z,69.50
2018-04-17T15:49:52.057Z,68.50
2018-04-17T15:52:53.319Z,69.30
2018-04-17T15:55:54.589Z,72.00
2018-04-17T15:58:55.835Z,71.90
2018-04-17T16:01:57.108Z,69.30
2018-04-17T16:04:58.968Z,69.00
2018-04-17T16:08:00.317Z,70.10
2018-04-17T16:11:01.667Z,69.00
2018-04-17T16:14:03.817Z,71.50
2018-04-17T16:17:05.274Z,71.30
2018-04-17T16:20:06.600Z,69.20
2018-04-17T16:23:07.952Z,71.60
2018-04-17T16:26:09.955Z,73.80
2018-04-17T16:29:11.240Z,73.80
2018-04-17T16:32:12.537Z,71.80
2018-04-17T16:35:13.813Z,69.20
2018-04-17T16:38:15.103Z,69.80
2018-04-17T16:41:16.373Z,68.80
2018-04-17T16:44:17.680Z,68.40
2018-04-17T16:47:18.921Z,69.50
2018-04-17T16:50:20.210Z,72.10
2018-04-17T16:53:21.441Z,69.50
2018-04-17T16:56:22.740Z,70.60
2018-04-17T16:59:24.014Z,71.60
2018-04-17T17:02:25.392Z,69.50
2018-04-17T17:05:27.468Z,69.00
2018-04-17T17:08:28.685Z,69.00
2018-04-17T17:11:29.939Z,69.00
2018-04-17T17:14:31.240Z,73.00
2018-04-17T17:17:32.591Z,80.20
2018-04-17T17:20:33.919Z,85.30
2018-04-17T17:23:35.349Z,87.10
2018-04-17T17:26:36.742Z,89.70
2018-04-17T17:29:38.018Z,90.60
2018-04-17T17:32:39.376Z,87.20
2018-04-17T17:35:40.730Z,91.70
2018-04-17T17:38:42.735Z,92.60
2018-04-17T17:41:44.033Z,92.60
2018-04-17T17:44:45.301Z,93.30
2018-04-17T17:47:46.566Z,94.50
2018-04-17T17:50:47.830Z,94.00
2018-04-17T17:53:49.076Z,95.80
2018-04-17T17:56:50.476Z,96.10
2018-04-17T17:59:51.737Z,96.80
2018-04-17T18:02:53.007Z,97.20
2018-04-17T18:05:54.273Z,97.10
2018-04-17T18:08:55.524Z,97.70
2018-04-17T18:11:56.803Z,98.10
2018-04-17T18:14:58.788Z,98.70
2018-04-17T18:18:00.925Z,98.60
2018-04-17T18:21:02.190Z,98.60
2018-04-17T18:24:03.481Z,98.40
2018-04-17T18:27:04.768Z,98.30
2018-04-17T18:30:06.794Z,98.30
2018-04-17T18:33:08.036Z,98.30
2018-04-17T18:36:09.310Z,98.50
2018-04-17T18:39:10.632Z,98.50
2018-04-17T18:42:11.854Z,98.70
2018-04-17T18:45:13.097Z,98.50
2018-04-17T18:48:14.350Z,98.40
2018-04-17T18:51:15.607Z,98.40
2018-04-17T18:54:16.831Z,98.30
2018-04-17T18:57:18.181Z,98.30
2018-04-17T19:00:19.444Z,98.20
2018-04-17T19:03:20.726Z,98.50
2018-04-17T19:06:21.990Z,98.40
2018-04-17T19:09:23.250Z,98.40
2018-04-17T19:12:24.616Z,98.30
2018-04-17T19:15:25.867Z,98.20
2018-04-17T19:18:27.106Z,98.10
2018-04-17T19:21:28.371Z,98.20
2018-04-17T19:24:30.362Z,98.20
2018-04-17T19:27:32.455Z,98.20
2018-04-17T19:30:33.728Z,98.10
2018-04-17T19:33:34.993Z,97.90
2018-04-17T19:36:36.331Z,97.90
2018-04-17T19:39:37.609Z,97.70
2018-04-17T19:42:38.902Z,97.80
2018-04-17T19:45:40.906Z,98.00
2018-04-17T19:48:42.134Z,97.90
2018-04-17T19:51:44.204Z,97.80
2018-04-17T19:54:45.478Z,97.80
2018-04-17T19:57:46.727Z,97.80
2018-04-17T20:00:47.995Z,98.00
2018-04-17T20:03:49.287Z,98.00
2018-04-17T20:06:51.307Z,98.20
2018-04-17T20:09:53.259Z,98.00
2018-04-17T20:12:55.264Z,98.20
2018-04-17T20:15:56.575Z,98.20
2018-04-17T20:18:57.846Z,98.20
2018-04-17T20:22:00.254Z,98.10
2018-04-17T20:25:01.601Z,98.00
2018-04-17T20:28:04.628Z,98.10
2018-04-17T20:31:05.923Z,98.20
2018-04-17T20:34:07.619Z,98.20
2018-04-17T20:37:08.870Z,98.20
2018-04-17T20:40:10.186Z,98.40
2018-04-17T20:43:12.230Z,98.40
2018-04-17T20:46:13.535Z,98.40
2018-04-17T20:49:14.883Z,98.50
2018-04-17T20:52:16.907Z,98.70
2018-04-17T20:55:18.168Z,98.40
2018-04-17T20:58:19.494Z,98.30
2018-04-17T21:01:21.486Z,98.40
2018-04-17T21:04:23.485Z,98.10
2018-04-17T21:07:24.767Z,98.10
2018-04-17T21:10:26.043Z,98.80
2018-04-17T21:13:30.735Z,98.90
2018-04-17T21:16:32.875Z,99.30
2018-04-17T21:19:34.237Z,99.20
2018-04-17T21:22:35.562Z,99.30
2018-04-17T21:25:36.912Z,99.30
2018-04-17T21:28:38.985Z,99.20
2018-04-17T21:31:40.253Z,99.40
2018-04-17T21:34:42.276Z,99.30
2018-04-17T21:37:43.559Z,99.30
2018-04-17T21:40:44.844Z,99.60
2018-04-17T21:43:46.111Z,99.70
2018-04-17T21:46:47.405Z,99.80
2018-04-17T21:49:48.678Z,99.90
2018-04-17T21:52:49.942Z,99.70
2018-04-17T21:55:51.232Z,99.80
2018-04-17T21:58:52.541Z,99.70
2018-04-17T22:01:54.546Z,99.90
2018-04-17T22:04:55.860Z,99.90
2018-04-17T22:07:57.147Z,99.90
2018-04-17T22:10:59.200Z,99.90
2018-04-17T22:14:00.643Z,99.90
2018-04-17T22:17:01.945Z,99.90
2018-04-17T22:20:03.333Z,99.90
2018-04-17T22:23:05.397Z,99.90
2018-04-17T22:26:06.686Z,99.90
2018-04-17T22:29:09.170Z,99.90
2018-04-17T22:32:11.180Z,99.90
2018-04-17T22:35:12.541Z,99.90
2018-04-17T22:38:13.838Z,99.90
2018-04-17T22:41:15.120Z,99.90
2018-04-17T22:44:16.416Z,99.90
2018-04-17T22:47:18.452Z,99.90
2018-04-17T22:50:19.758Z,99.90
2018-04-17T22:53:21.793Z,99.50
2018-04-17T22:56:23.090Z,99.50
2018-04-17T22:59:24.417Z,99.90
2018-04-17T23:02:25.708Z,99.90
2018-04-17T23:05:27.116Z,99.90
2018-04-17T23:08:28.399Z,99.90
2018-04-17T23:11:29.756Z,99.90
2018-04-17T23:14:31.390Z,99.90
2018-04-17T23:17:32.829Z,99.90
2018-04-17T23:20:34.625Z,99.90
2018-04-17T23:23:35.913Z,99.90
2018-04-17T23:26:38.007Z,99.90
2018-04-17T23:29:39.277Z,99.90
2018-04-17T23:32:40.649Z,99.90
2018-04-17T23:35:46.430Z,99.90
2018-04-17T23:38:48.367Z,99.90
2018-04-17T23:41:50.202Z,99.90
2018-04-17T23:44:51.977Z,99.90
2018-04-17T23:47:53.262Z,99.90
2018-04-17T23:50:54.550Z,99.90
2018-04-17T23:53:56.554Z,99.90
2018-04-17T23:56:57.829Z,99.90
2018-04-17T23:59:59.105Z,99.90
